Pagina principală
METAR-TAF:

METAR-TAF

Aeroporturi :

Weno, Micronezia

Latitudine: 07-28N, longitudine: 151-51E, elevație: 3 m

Observații meteo curente

Raportul a fost făcut în urmă cu 46 de minute, la 14:51 UTC
Vânt 10 kt de la Nord-est
Temperatură 27°C
Umiditate 89%
Presiune 1008 hPa
Vizibilitate: 24.1 km
Nori puțini la o înălțime de 1400 picior
Nori fragmentați la o înălțime de 29000 picior

METAR: PTKK 181451Z 04010KT 15SM FEW014 BKN290 27/25 A2978 RMK SLP088 8/101 T02730245 57010

Ora: 01:37 (15:37 UTC)

Prognoză

Raportul a fost făcut în urmă cu 4 ore și 5 de minute, la 11:32 UTC
Prognoză valabilă de la 18 ora 12 UTC la 19 ora 12 UTC
Vânt 11 kt de la Nord-est
Vizibilitate: 10 km
Nori puțini la o înălțime de 1400 picior
Nori împrăștiați la o înălțime de 5000 picior
averse în apropiere

TAF: PTKK 181132Z 1812/1912 04011KT P6SM VCSH FEW014 SCT050

Observații și prognoze meteo pentru peste 4.000 de aeroporturi (rapoarte METAR și TAF).

Stațiile disponibile sunt reprezentate pe hartă prin puncte galbene și roșii.

Țineți indicatorul mouse-ului pe punctul dorit pentru a vedea denumirea stației.

Apoi, faceți clic pentru a vedea observațiile și prognozele meteorologice.

Pentru a schimba harta: Pentru mărire, faceți clic pe butoanele verzi cu cruce neagră; pentru micșorare, pe butonul verde cu o liniuță; pentru hărți învecinate, pe săgețile verzi.


METAR-TAF: